sensor_id;sensor_type;location;lat;lon;timestamp;pressure;altitude;pressure_sealevel;temperature;humidity
78117;BME280;69042;59.120;37.904;2024-01-30T05:07:07;100858.22;;;2.98;74.30
78117;BME280;69042;59.120;37.904;2024-01-30T05:09:33;100855.63;;;3.01;74.25
78117;BME280;69042;59.120;37.904;2024-01-30T05:12:00;100852.19;;;3.03;74.81
78117;BME280;69042;59.120;37.904;2024-01-30T05:14:26;100845.31;;;3.05;74.45
78117;BME280;69042;59.120;37.904;2024-01-30T05:16:52;100844.44;;;3.08;74.54
78117;BME280;69042;59.120;37.904;2024-01-30T05:19:19;100850.47;;;3.13;74.48
78117;BME280;69042;59.120;37.904;2024-01-30T05:21:46;100853.91;;;3.15;74.32
78117;BME280;69042;59.120;37.904;2024-01-30T05:24:12;100856.50;;;3.17;73.76
78117;BME280;69042;59.120;37.904;2024-01-30T05:26:39;100843.59;;;3.18;74.01
78117;BME280;69042;59.120;37.904;2024-01-30T05:29:06;100847.91;;;3.18;73.79
78117;BME280;69042;59.120;37.904;2024-01-30T05:31:34;100854.78;;;3.16;73.78
78117;BME280;69042;59.120;37.904;2024-01-30T05:34:01;100851.31;;;3.17;73.27
78117;BME280;69042;59.120;37.904;2024-01-30T05:36:27;100858.22;;;3.13;73.22
78117;BME280;69042;59.120;37.904;2024-01-30T05:38:53;100859.06;;;3.10;73.01
78117;BME280;69042;59.120;37.904;2024-01-30T05:41:20;100870.25;;;3.08;72.57
78117;BME280;69042;59.120;37.904;2024-01-30T05:43:47;100860.78;;;3.04;72.53
78117;BME280;69042;59.120;37.904;2024-01-30T05:46:13;100845.31;;;2.98;72.88
78117;BME280;69042;59.120;37.904;2024-01-30T05:48:40;100855.63;;;2.93;72.67
78117;BME280;69042;59.120;37.904;2024-01-30T05:51:07;100861.63;;;2.92;72.52
78117;BME280;69042;59.120;37.904;2024-01-30T05:53:34;100853.88;;;2.86;72.77
78117;BME280;69042;59.120;37.904;2024-01-30T05:56:01;100858.19;;;2.82;72.59
78117;BME280;69042;59.120;37.904;2024-01-30T05:58:28;100862.47;;;2.74;72.57
78117;BME280;69042;59.120;37.904;2024-01-30T06:00:55;100866.75;;;2.67;72.69
78117;BME280;69042;59.120;37.904;2024-01-30T06:03:21;100864.16;;;2.64;73.12
78117;BME280;69042;59.120;37.904;2024-01-30T06:05:47;100872.75;;;2.63;73.07
78117;BME280;69042;59.120;37.904;2024-01-30T06:08:14;100881.38;;;2.64;73.18
78117;BME280;69042;59.120;37.904;2024-01-30T06:10:40;100889.13;;;2.64;73.36
78117;BME280;69042;59.120;37.904;2024-01-30T06:13:06;100900.28;;;2.63;73.31
78117;BME280;69042;59.120;37.904;2024-01-30T06:15:33;100897.72;;;2.61;73.29
78117;BME280;69042;59.120;37.904;2024-01-30T06:17:59;100908.88;;;2.62;73.06
78117;BME280;69042;59.120;37.904;2024-01-30T06:20:26;100910.59;;;2.60;73.62
78117;BME280;69042;59.120;37.904;2024-01-30T06:22:52;100904.56;;;2.61;73.37
78117;BME280;69042;59.120;37.904;2024-01-30T06:25:18;100910.59;;;2.63;73.74
78117;BME280;69042;59.120;37.904;2024-01-30T06:27:45;100936.41;;;2.67;73.12
78117;BME280;69042;59.120;37.904;2024-01-30T06:30:12;100931.25;;;2.67;73.69
78117;BME280;69042;59.120;37.904;2024-01-30T06:32:38;100926.13;;;2.75;73.38
78117;BME280;69042;59.120;37.904;2024-01-30T06:35:05;100940.78;;;2.79;73.49
78117;BME280;69042;59.120;37.904;2024-01-30T06:37:32;100938.19;;;2.82;73.69
78117;BME280;69042;59.120;37.904;2024-01-30T06:39:58;100933.03;;;2.82;73.05
78117;BME280;69042;59.120;37.904;2024-01-30T06:42:24;100937.31;;;2.83;73.05
78117;BME280;69042;59.120;37.904;2024-01-30T06:44:51;100939.94;;;2.86;73.66
78117;BME280;69042;59.120;37.904;2024-01-30T06:47:17;100943.38;;;2.91;73.58
78117;BME280;69042;59.120;37.904;2024-01-30T06:49:43;100950.28;;;2.96;73.21
78117;BME280;69042;59.120;37.904;2024-01-30T06:52:11;100950.28;;;3.00;73.17
78117;BME280;69042;59.120;37.904;2024-01-30T06:54:37;100948.56;;;3.04;73.17
78117;BME280;69042;59.120;37.904;2024-01-30T06:57:04;100927.06;;;3.09;73.42
78117;BME280;69042;59.120;37.904;2024-01-30T06:59:31;100927.06;;;3.12;73.20
78117;BME280;69042;59.120;37.904;2024-01-30T07:01:57;100936.53;;;3.15;73.08
78117;BME280;69042;59.120;37.904;2024-01-30T07:04:24;100928.78;;;3.12;72.41
78117;BME280;69042;59.120;37.904;2024-01-30T07:06:50;100937.38;;;3.08;72.65
78117;BME280;69042;59.120;37.904;2024-01-30T07:09:16;100937.41;;;3.06;72.25
78117;BME280;69042;59.120;37.904;2024-01-30T07:11:43;100931.34;;;3.03;72.94
78117;BME280;69042;59.120;37.904;2024-01-30T07:14:09;100923.59;;;2.97;72.76
78117;BME280;69042;59.120;37.904;2024-01-30T07:16:35;100929.63;;;2.94;72.17
78117;BME280;69042;59.120;37.904;2024-01-30T07:19:02;100936.47;;;2.87;72.43
78117;BME280;69042;59.120;37.904;2024-01-30T07:21:28;100934.75;;;2.85;72.73
78117;BME280;69042;59.120;37.904;2024-01-30T07:23:55;100936.47;;;2.84;72.10
78117;BME280;69042;59.120;37.904;2024-01-30T07:26:21;100931.28;;;2.81;73.12
78117;BME280;69042;59.120;37.904;2024-01-30T07:28:48;100937.31;;;2.77;72.95
78117;BME280;69042;59.120;37.904;2024-01-30T07:31:16;100947.63;;;2.74;72.83
78117;BME280;69042;59.120;37.904;2024-01-30T07:33:42;100945.03;;;2.66;72.50
78117;BME280;69042;59.120;37.904;2024-01-30T07:36:08;100946.72;;;2.63;72.38
78117;BME280;69042;59.120;37.904;2024-01-30T07:38:36;100960.47;;;2.60;72.90
78117;BME280;69042;59.120;37.904;2024-01-30T07:41:03;100964.75;;;2.57;72.75
78117;BME280;69042;59.120;37.904;2024-01-30T07:43:29;100961.28;;;2.52;72.59
78117;BME280;69042;59.120;37.904;2024-01-30T07:45:55;100975.03;;;2.47;72.43
78117;BME280;69042;59.120;37.904;2024-01-30T07:48:22;100966.44;;;2.44;72.82
78117;BME280;69042;59.120;37.904;2024-01-30T07:50:48;100974.13;;;2.41;72.93
78117;BME280;69042;59.120;37.904;2024-01-30T07:53:14;100972.41;;;2.37;73.12
78117;BME280;69042;59.120;37.904;2024-01-30T07:55:41;100968.94;;;2.32;73.12
78117;BME280;69042;59.120;37.904;2024-01-30T07:58:09;100973.22;;;2.29;72.85
78117;BME280;69042;59.120;37.904;2024-01-30T08:00:37;100964.63;;;2.26;72.84
78117;BME280;69042;59.120;37.904;2024-01-30T08:03:04;100962.88;;;2.23;72.63
78117;BME280;69042;59.120;37.904;2024-01-30T08:05:30;100961.13;;;2.16;72.93
78117;BME280;69042;59.120;37.904;2024-01-30T08:07:57;100955.91;;;2.12;72.90
78117;BME280;69042;59.120;37.904;2024-01-30T08:10:23;100961.06;;;2.05;73.13
78117;BME280;69042;59.120;37.904;2024-01-30T08:12:49;100962.72;;;2.00;73.28
78117;BME280;69042;59.120;37.904;2024-01-30T08:15:16;100967.00;;;1.94;73.85
78117;BME280;69042;59.120;37.904;2024-01-30T08:17:47;100963.53;;;1.90;73.67
78117;BME280;69042;59.120;37.904;2024-01-30T08:20:13;100961.78;;;1.89;73.70
78117;BME280;69042;59.120;37.904;2024-01-30T08:22:40;100971.19;;;1.84;73.62
78117;BME280;69042;59.120;37.904;2024-01-30T08:25:12;100958.28;;;1.79;74.01
78117;BME280;69042;59.120;37.904;2024-01-30T08:27:38;100972.88;;;1.76;73.73
78117;BME280;69042;59.120;37.904;2024-01-30T08:30:06;100979.72;;;1.72;74.48
78117;BME280;69042;59.120;37.904;2024-01-30T08:32:33;100978.81;;;1.69;74.11
78117;BME280;69042;59.120;37.904;2024-01-30T08:34:59;100969.34;;;1.66;74.48
78117;BME280;69042;59.120;37.904;2024-01-30T08:37:29;100965.03;;;1.63;74.46
78117;BME280;69042;59.120;37.904;2024-01-30T08:39:56;100980.50;;;1.65;73.71
78117;BME280;69042;59.120;37.904;2024-01-30T08:42:22;100978.78;;;1.64;74.57
78117;BME280;69042;59.120;37.904;2024-01-30T08:44:49;100971.03;;;1.64;74.42
78117;BME280;69042;59.120;37.904;2024-01-30T08:47:22;100966.75;;;1.63;75.17
78117;BME280;69042;59.120;37.904;2024-01-30T08:49:48;100974.50;;;1.64;75.10
78117;BME280;69042;59.120;37.904;2024-01-30T08:52:15;100978.78;;;1.64;74.70
78117;BME280;69042;59.120;37.904;2024-01-30T08:54:41;100978.78;;;1.62;75.10
78117;BME280;69042;59.120;37.904;2024-01-30T08:57:07;100990.78;;;1.62;75.01
78117;BME280;69042;59.120;37.904;2024-01-30T08:59:34;100989.91;;;1.61;75.07
78117;BME280;69042;59.120;37.904;2024-01-30T09:02:00;100992.50;;;1.63;74.99
78117;BME280;69042;59.120;37.904;2024-01-30T09:04:26;101000.25;;;1.63;75.12
78117;BME280;69042;59.120;37.904;2024-01-30T09:06:53;100994.22;;;1.61;74.74
78117;BME280;69042;59.120;37.904;2024-01-30T09:09:19;101001.97;;;1.62;74.62
78117;BME280;69042;59.120;37.904;2024-01-30T09:11:46;100998.53;;;1.63;75.33
78117;BME280;69042;59.120;37.904;2024-01-30T09:14:13;100984.75;;;1.61;74.92
78117;BME280;69042;59.120;37.904;2024-01-30T09:16:39;101003.66;;;1.62;75.15
78117;BME280;69042;59.120;37.904;2024-01-30T09:19:05;100993.34;;;1.62;74.91
78117;BME280;69042;59.120;37.904;2024-01-30T09:21:32;100995.97;;;1.65;74.91
78117;BME280;69042;59.120;37.904;2024-01-30T09:24:03;101004.53;;;1.64;75.45
78117;BME280;69042;59.120;37.904;2024-01-30T09:26:32;101003.66;;;1.62;74.76
78117;BME280;69042;59.120;37.904;2024-01-30T09:28:58;101001.97;;;1.62;74.98
78117;BME280;69042;59.120;37.904;2024-01-30T09:31:25;101016.53;;;1.60;74.72
78117;BME280;69042;59.120;37.904;2024-01-30T09:33:51;101011.44;;;1.65;75.53
78117;BME280;69042;59.120;37.904;2024-01-30T09:36:20;101001.13;;;1.65;75.10
78117;BME280;69042;59.120;37.904;2024-01-30T09:38:46;100992.53;;;1.64;74.73
78117;BME280;69042;59.120;37.904;2024-01-30T09:41:13;101001.97;;;1.64;75.17
78117;BME280;69042;59.120;37.904;2024-01-30T09:43:39;100998.56;;;1.68;75.38
78117;BME280;69042;59.120;37.904;2024-01-30T09:46:11;100997.72;;;1.67;75.07
78117;BME280;69042;59.120;37.904;2024-01-30T09:48:47;101004.63;;;1.72;74.74
78117;BME280;69042;59.120;37.904;2024-01-30T09:51:14;101002.03;;;1.73;74.96
78117;BME280;69042;59.120;37.904;2024-01-30T09:53:42;101001.19;;;1.74;74.77
78117;BME280;69042;59.120;37.904;2024-01-30T09:56:10;101011.50;;;1.74;75.12
78117;BME280;69042;59.120;37.904;2024-01-30T09:58:38;101011.53;;;1.77;75.09
78117;BME280;69042;59.120;37.904;2024-01-30T10:01:06;101013.28;;;1.81;74.64
78117;BME280;69042;59.120;37.904;2024-01-30T10:03:32;101019.28;;;1.82;74.61
78117;BME280;69042;59.120;37.904;2024-01-30T10:05:59;101014.19;;;1.85;74.26
78117;BME280;69042;59.120;37.904;2024-01-30T10:08:27;101018.50;;;1.87;75.00
78117;BME280;69042;59.120;37.904;2024-01-30T10:10:54;101022.81;;;1.90;74.27
78117;BME280;69042;59.120;37.904;2024-01-30T10:13:20;101015.09;;;1.92;74.35
78117;BME280;69042;59.120;37.904;2024-01-30T10:15:47;101018.53;;;1.94;74.43
78117;BME280;69042;59.120;37.904;2024-01-30T10:18:13;101010.84;;;1.98;74.60
78117;BME280;69042;59.120;37.904;2024-01-30T10:20:39;101003.09;;;2.00;74.68
78117;BME280;69042;59.120;37.904;2024-01-30T10:23:06;101009.16;;;2.03;74.46
78117;BME280;69042;59.120;37.904;2024-01-30T10:25:32;101002.28;;;2.04;74.40
78117;BME280;69042;59.120;37.904;2024-01-30T10:27:59;101019.47;;;2.06;74.17
78117;BME280;69042;59.120;37.904;2024-01-30T10:30:27;101006.59;;;2.06;74.14
78117;BME280;69042;59.120;37.904;2024-01-30T10:32:53;101013.47;;;2.06;74.04
78117;BME280;69042;59.120;37.904;2024-01-30T10:35:20;101014.31;;;2.03;73.73
78117;BME280;69042;59.120;37.904;2024-01-30T10:37:49;101009.13;;;2.02;73.70
78117;BME280;69042;59.120;37.904;2024-01-30T10:40:15;101021.19;;;2.04;73.63
78117;BME280;69042;59.120;37.904;2024-01-30T10:42:44;101019.50;;;2.08;74.02
78117;BME280;69042;59.120;37.904;2024-01-30T10:45:14;101024.69;;;2.10;74.16
78117;BME280;69042;59.120;37.904;2024-01-30T10:47:53;101026.41;;;2.14;73.96
78117;BME280;69042;59.120;37.904;2024-01-30T10:50:24;101012.69;;;2.18;73.49
78117;BME280;69042;59.120;37.904;2024-01-30T10:52:52;101023.88;;;2.20;73.48
78117;BME280;69042;59.120;37.904;2024-01-30T10:55:19;101023.03;;;2.24;73.60
78117;BME280;69042;59.120;37.904;2024-01-30T10:57:47;101021.34;;;2.29;73.47
78117;BME280;69042;59.120;37.904;2024-01-30T11:00:14;101022.25;;;2.36;72.99
78117;BME280;69042;59.120;37.904;2024-01-30T11:02:43;101027.47;;;2.42;72.99
78117;BME280;69042;59.120;37.904;2024-01-30T11:05:11;101034.38;;;2.49;72.80
78117;BME280;69042;59.120;37.904;2024-01-30T11:07:39;101033.56;;;2.55;73.41
78117;BME280;69042;59.120;37.904;2024-01-30T11:10:09;101031.00;;;2.61;73.31
78117;BME280;69042;59.120;37.904;2024-01-30T11:12:39;101034.47;;;2.69;72.94
78117;BME280;69042;59.120;37.904;2024-01-30T11:15:12;101031.06;;;2.76;72.48
78117;BME280;69042;59.120;37.904;2024-01-30T11:20:30;101042.34;;;2.97;72.12
78117;BME280;69042;59.120;37.904;2024-01-30T11:23:02;101044.97;;;3.07;71.77
78117;BME280;69042;59.120;37.904;2024-01-30T11:25:32;101045.00;;;3.13;71.34
78117;BME280;69042;59.120;37.904;2024-01-30T11:27:58;101045.88;;;3.20;71.80
78117;BME280;69042;59.120;37.904;2024-01-30T11:33:30;101043.34;;;3.37;70.25
78117;BME280;69042;59.120;37.904;2024-01-30T11:36:00;101039.91;;;3.43;70.71
78117;BME280;69042;59.120;37.904;2024-01-30T11:38:27;101056.28;;;3.49;70.64
78117;BME280;69042;59.120;37.904;2024-01-30T11:40:57;101041.66;;;3.53;70.57
78117;BME280;69042;59.120;37.904;2024-01-30T11:43:23;101047.72;;;3.58;70.32
78117;BME280;69042;59.120;37.904;2024-01-30T11:45:50;101048.56;;;3.65;69.97
78117;BME280;69042;59.120;37.904;2024-01-30T11:48:17;101040.81;;;3.68;69.83
78117;BME280;69042;59.120;37.904;2024-01-30T11:50:43;101048.56;;;3.71;69.66
78117;BME280;69042;59.120;37.904;2024-01-30T11:53:13;101055.47;;;3.70;69.42
78117;BME280;69042;59.120;37.904;2024-01-30T11:55:39;101064.94;;;3.73;69.50
78117;BME280;69042;59.120;37.904;2024-01-30T11:58:05;101045.97;;;3.75;69.90
78117;BME280;69042;59.120;37.904;2024-01-30T12:00:32;101050.31;;;3.81;69.51
78117;BME280;69042;59.120;37.904;2024-01-30T12:02:59;101061.53;;;3.88;69.51
78117;BME280;69042;59.120;37.904;2024-01-30T12:05:27;101052.03;;;3.90;68.99
78117;BME280;69042;59.120;37.904;2024-01-30T12:07:54;101052.03;;;3.90;68.76
78117;BME280;69042;59.120;37.904;2024-01-30T12:10:21;101052.88;;;3.89;68.53
78117;BME280;69042;59.120;37.904;2024-01-30T12:12:49;101060.63;;;3.83;68.65
78117;BME280;69042;59.120;37.904;2024-01-30T12:15:16;101070.13;;;3.81;68.05
78117;BME280;69042;59.120;37.904;2024-01-30T12:17:43;101073.56;;;3.81;68.74
78117;BME280;69042;59.120;37.904;2024-01-30T12:20:10;101071.00;;;3.86;68.15
78117;BME280;69042;59.120;37.904;2024-01-30T12:22:39;101083.94;;;3.87;68.24
78117;BME280;69042;59.120;37.904;2024-01-30T12:25:14;101087.38;;;3.88;68.28
78117;BME280;69042;59.120;37.904;2024-01-30T12:27:44;101083.91;;;3.89;68.05
78117;BME280;69042;59.120;37.904;2024-01-30T12:30:13;101081.34;;;3.87;68.61
78117;BME280;69042;59.120;37.904;2024-01-30T12:32:41;101088.22;;;3.82;68.02
78117;BME280;69042;59.120;37.904;2024-01-30T12:35:17;101083.88;;;3.73;68.17
78117;BME280;69042;59.120;37.904;2024-01-30T12:37:45;101086.47;;;3.66;67.98
78117;BME280;69042;59.120;37.904;2024-01-30T12:40:12;101085.59;;;3.51;68.15
78117;BME280;69042;59.120;37.904;2024-01-30T12:42:41;101082.09;;;3.37;67.61
78117;BME280;69042;59.120;37.904;2024-01-30T12:45:09;101076.88;;;3.19;67.84
78117;BME280;69042;59.120;37.904;2024-01-30T12:47:36;101080.25;;;3.07;68.17
78117;BME280;69042;59.120;37.904;2024-01-30T12:50:02;101072.47;;;2.93;68.43
78117;BME280;69042;59.120;37.904;2024-01-30T12:52:29;101076.69;;;2.83;68.07
78117;BME280;69042;59.120;37.904;2024-01-30T12:54:55;101071.50;;;2.73;68.40
78117;BME280;69042;59.120;37.904;2024-01-30T12:57:21;101080.88;;;2.60;68.08
78117;BME280;69042;59.120;37.904;2024-01-30T12:59:49;101081.66;;;2.43;68.49
78117;BME280;69042;59.120;37.904;2024-01-30T13:02:15;101084.09;;;2.26;68.86
78117;BME280;69042;59.120;37.904;2024-01-30T13:04:42;101089.97;;;2.10;68.90
78117;BME280;69042;59.120;37.904;2024-01-30T13:07:09;101094.97;;;1.93;68.70
78117;BME280;69042;59.120;37.904;2024-01-30T13:09:36;101095.72;;;1.78;69.25
78117;BME280;69042;59.120;37.904;2024-01-30T13:12:02;101093.81;;;1.62;69.59
78117;BME280;69042;59.120;37.904;2024-01-30T13:14:29;101083.38;;;1.48;69.60
78117;BME280;69042;59.120;37.904;2024-01-30T13:16:56;101092.72;;;1.38;70.56
78117;BME280;69042;59.120;37.904;2024-01-30T13:19:22;101087.41;;;1.26;71.11
78117;BME280;69042;59.120;37.904;2024-01-30T13:21:48;101100.16;;;1.17;70.89
78117;BME280;69042;59.120;37.904;2024-01-30T13:24:14;101108.66;;;1.08;70.85
78117;BME280;69042;59.120;37.904;2024-01-30T13:26:42;101106.84;;;0.99;71.63
78117;BME280;69042;59.120;37.904;2024-01-30T13:29:09;101106.72;;;0.92;72.46
78117;BME280;69042;59.120;37.904;2024-01-30T13:31:36;101107.50;;;0.85;71.75
78117;BME280;69042;59.120;37.904;2024-01-30T13:34:02;101117.69;;;0.77;72.51
78117;BME280;69042;59.120;37.904;2024-01-30T13:36:28;101115.84;;;0.68;72.19
78117;BME280;69042;59.120;37.904;2024-01-30T13:38:55;101121.72;;;0.59;72.75
78117;BME280;69042;59.120;37.904;2024-01-30T13:41:21;101126.75;;;0.53;72.37
78117;BME280;69042;59.120;37.904;2024-01-30T13:43:48;101124.09;;;0.47;72.87
78117;BME280;69042;59.120;37.904;2024-01-30T13:46:15;101129.97;;;0.40;73.47
78117;BME280;69042;59.120;37.904;2024-01-30T13:48:41;101125.56;;;0.33;73.16
78117;BME280;69042;59.120;37.904;2024-01-30T13:51:07;101132.31;;;0.26;73.41
78117;BME280;69042;59.120;37.904;2024-01-30T13:53:34;101136.53;;;0.21;73.12
78117;BME280;69042;59.120;37.904;2024-01-30T13:56:00;101137.28;;;0.14;73.84
78117;BME280;69042;59.120;37.904;2024-01-30T13:58:26;101144.91;;;0.11;73.89
78117;BME280;69042;59.120;37.904;2024-01-30T14:00:53;101150.84;;;0.07;73.94
78117;BME280;69042;59.120;37.904;2024-01-30T14:03:19;101155.06;;;0.03;74.03
78117;BME280;69042;59.120;37.904;2024-01-30T14:05:46;101159.28;;;-0.02;74.19
78117;BME280;69042;59.120;37.904;2024-01-30T14:08:12;101172.84;;;-0.08;74.23
78117;BME280;69042;59.120;37.904;2024-01-30T14:10:38;101172.81;;;-0.09;74.36
78117;BME280;69042;59.120;37.904;2024-01-30T14:13:04;101171.91;;;-0.11;74.53
78117;BME280;69042;59.120;37.904;2024-01-30T14:15:31;101175.34;;;-0.12;74.77
78117;BME280;69042;59.120;37.904;2024-01-30T14:17:57;101183.91;;;-0.12;75.02
78117;BME280;69042;59.120;37.904;2024-01-30T14:20:23;101183.91;;;-0.12;74.71
78117;BME280;69042;59.120;37.904;2024-01-30T14:22:49;101182.19;;;-0.11;75.20
78117;BME280;69042;59.120;37.904;2024-01-30T14:25:16;101182.22;;;-0.10;75.54
78117;BME280;69042;59.120;37.904;2024-01-30T14:27:42;101192.59;;;-0.07;75.58
78117;BME280;69042;59.120;37.904;2024-01-30T14:30:12;101184.00;;;-0.07;75.99
78117;BME280;69042;59.120;37.904;2024-01-30T14:32:38;101194.31;;;-0.06;75.68
78117;BME280;69042;59.120;37.904;2024-01-30T14:35:06;101190.91;;;-0.03;75.83
78117;BME280;69042;59.120;37.904;2024-01-30T14:37:33;101191.00;;;0.02;76.02
78117;BME280;69042;59.120;37.904;2024-01-30T14:40:00;101200.50;;;0.06;76.04
78117;BME280;69042;59.120;37.904;2024-01-30T14:42:27;101202.22;;;0.07;76.25
78117;BME280;69042;59.120;37.904;2024-01-30T14:44:57;101192.03;;;0.10;75.97
78117;BME280;69042;59.120;37.904;2024-01-30T14:47:25;101186.88;;;0.10;76.25
78117;BME280;69042;59.120;37.904;2024-01-30T14:49:51;101190.34;;;0.12;75.83
78117;BME280;69042;59.120;37.904;2024-01-30T14:52:18;101201.47;;;0.12;76.34
78117;BME280;69042;59.120;37.904;2024-01-30T14:54:44;101199.78;;;0.13;75.96
78117;BME280;69042;59.120;37.904;2024-01-30T14:57:10;101204.00;;;0.11;76.51
78117;BME280;69042;59.120;37.904;2024-01-30T14:59:37;101204.00;;;0.09;76.52
78117;BME280;69042;59.120;37.904;2024-01-30T15:02:03;101197.06;;;0.05;76.67
78117;BME280;69042;59.120;37.904;2024-01-30T15:04:30;101194.50;;;0.05;76.26
78117;BME280;69042;59.120;37.904;2024-01-30T15:06:56;101209.94;;;0.07;76.39
78117;BME280;69042;59.120;37.904;2024-01-30T15:09:22;101204.78;;;0.05;76.23
78117;BME280;69042;59.120;37.904;2024-01-30T15:11:48;101205.59;;;0.04;76.24
78117;BME280;69042;59.120;37.904;2024-01-30T15:14:15;101197.91;;;0.04;76.01
78117;BME280;69042;59.120;37.904;2024-01-30T15:16:41;101205.59;;;0.03;76.58
78117;BME280;69042;59.120;37.904;2024-01-30T15:19:08;101203.88;;;0.03;76.56
78117;BME280;69042;59.120;37.904;2024-01-30T15:21:34;101205.56;;;0.01;76.00
78117;BME280;69042;59.120;37.904;2024-01-30T15:24:02;101214.09;;;-0.02;76.49
78117;BME280;69042;59.120;37.904;2024-01-30T15:26:28;101212.31;;;-0.04;76.33
78117;BME280;69042;59.120;37.904;2024-01-30T15:28:54;101214.00;;;-0.05;76.21
78117;BME280;69042;59.120;37.904;2024-01-30T15:31:20;101213.91;;;-0.09;76.36
78117;BME280;69042;59.120;37.904;2024-01-30T15:33:47;101216.44;;;-0.12;75.77
78117;BME280;69042;59.120;37.904;2024-01-30T15:36:13;101214.69;;;-0.15;76.50
78117;BME280;69042;59.120;37.904;2024-01-30T15:38:45;101221.50;;;-0.17;76.29
78117;BME280;69042;59.120;37.904;2024-01-30T15:41:11;101218.88;;;-0.20;76.36
78117;BME280;69042;59.120;37.904;2024-01-30T15:43:38;101215.38;;;-0.24;76.29
78117;BME280;69042;59.120;37.904;2024-01-30T15:46:04;101224.78;;;-0.24;76.43
78117;BME280;69042;59.120;37.904;2024-01-30T15:48:30;101227.31;;;-0.26;75.88
78117;BME280;69042;59.120;37.904;2024-01-30T15:50:56;101224.75;;;-0.26;76.36
78117;BME280;69042;59.120;37.904;2024-01-30T15:53:23;101221.28;;;-0.28;76.47
78117;BME280;69042;59.120;37.904;2024-01-30T15:55:52;101217.84;;;-0.28;76.41
78117;BME280;69042;59.120;37.904;2024-01-30T15:58:18;101216.94;;;-0.30;76.77
78117;BME280;69042;59.120;37.904;2024-01-30T16:00:44;101221.22;;;-0.31;76.86
78117;BME280;69042;59.120;37.904;2024-01-30T16:03:11;101211.75;;;-0.32;77.11
78117;BME280;69042;59.120;37.904;2024-01-30T16:05:37;101210.88;;;-0.34;76.53
78117;BME280;69042;59.120;37.904;2024-01-30T16:08:03;101219.38;;;-0.36;76.84
78117;BME280;69042;59.120;37.904;2024-01-30T16:10:29;101218.47;;;-0.40;76.48
78117;BME280;69042;59.120;37.904;2024-01-30T16:12:56;101214.06;;;-0.46;76.52
78117;BME280;69042;59.120;37.904;2024-01-30T16:15:22;101217.41;;;-0.50;76.68
78117;BME280;69042;59.120;37.904;2024-01-30T16:17:50;101217.38;;;-0.51;76.81
78117;BME280;69042;59.120;37.904;2024-01-30T16:20:17;101224.22;;;-0.52;77.09
78117;BME280;69042;59.120;37.904;2024-01-30T16:22:43;101226.78;;;-0.52;77.38
78117;BME280;69042;59.120;37.904;2024-01-30T16:25:10;101227.66;;;-0.51;77.41
78117;BME280;69042;59.120;37.904;2024-01-30T16:27:37;101228.47;;;-0.52;77.23
78117;BME280;69042;59.120;37.904;2024-01-30T16:30:04;101229.34;;;-0.52;77.42
78117;BME280;69042;59.120;37.904;2024-01-30T16:32:30;101243.84;;;-0.54;76.99
78117;BME280;69042;59.120;37.904;2024-01-30T16:34:58;101236.06;;;-0.57;77.39
78117;BME280;69042;59.120;37.904;2024-01-30T16:37:24;101236.94;;;-0.56;77.22
78117;BME280;69042;59.120;37.904;2024-01-30T16:39:51;101234.28;;;-0.61;76.98
78117;BME280;69042;59.120;37.904;2024-01-30T16:42:18;101241.00;;;-0.66;77.07
78117;BME280;69042;59.120;37.904;2024-01-30T16:44:45;101246.91;;;-0.70;77.05
78117;BME280;69042;59.120;37.904;2024-01-30T16:47:12;101255.50;;;-0.70;76.95
78117;BME280;69042;59.120;37.904;2024-01-30T16:49:39;101260.59;;;-0.71;77.31
78117;BME280;69042;59.120;37.904;2024-01-30T16:52:06;101256.25;;;-0.74;76.93
78117;BME280;69042;59.120;37.904;2024-01-30T16:54:32;101258.78;;;-0.75;77.37
78117;BME280;69042;59.120;37.904;2024-01-30T16:56:58;101252.81;;;-0.74;77.26
78117;BME280;69042;59.120;37.904;2024-01-30T16:59:24;101253.63;;;-0.75;77.68
78117;BME280;69042;59.120;37.904;2024-01-30T17:01:51;101242.56;;;-0.73;77.89
78117;BME280;69042;59.120;37.904;2024-01-30T17:04:17;101239.09;;;-0.75;77.75
78117;BME280;69042;59.120;37.904;2024-01-30T17:06:48;101246.00;;;-0.74;77.59
78117;BME280;69042;59.120;37.904;2024-01-30T17:09:14;101245.91;;;-0.77;78.28
78117;BME280;69042;59.120;37.904;2024-01-30T17:11:41;101247.66;;;-0.76;77.73
78117;BME280;69042;59.120;37.904;2024-01-30T17:14:08;101251.88;;;-0.78;77.63
78117;BME280;69042;59.120;37.904;2024-01-30T17:16:35;101242.38;;;-0.82;77.63
78117;BME280;69042;59.120;37.904;2024-01-30T17:19:01;101247.41;;;-0.87;77.47
78117;BME280;69042;59.120;37.904;2024-01-30T17:21:30;101257.63;;;-0.88;77.70
78117;BME280;69042;59.120;37.904;2024-01-30T17:23:57;101253.28;;;-0.92;77.78
78117;BME280;69042;59.120;37.904;2024-01-30T17:26:24;101258.31;;;-0.95;77.72
78117;BME280;69042;59.120;37.904;2024-01-30T17:28:50;101264.19;;;-0.99;77.48
78117;BME280;69042;59.120;37.904;2024-01-30T17:31:17;101261.53;;;-1.04;77.74
78117;BME280;69042;59.120;37.904;2024-01-30T17:33:43;101263.06;;;-1.11;78.22
78117;BME280;69042;59.120;37.904;2024-01-30T17:36:09;101259.59;;;-1.14;78.20
78117;BME280;69042;59.120;37.904;2024-01-30T17:38:36;101260.28;;;-1.20;78.15
78117;BME280;69042;59.120;37.904;2024-01-30T17:41:02;101250.03;;;-1.21;78.73
78117;BME280;69042;59.120;37.904;2024-01-30T17:43:29;101257.63;;;-1.24;78.67
78117;BME280;69042;59.120;37.904;2024-01-30T17:45:55;101251.69;;;-1.23;78.88
78117;BME280;69042;59.120;37.904;2024-01-30T17:48:22;101246.50;;;-1.25;78.87
78117;BME280;69042;59.120;37.904;2024-01-30T17:50:48;101251.56;;;-1.28;78.58
78117;BME280;69042;59.120;37.904;2024-01-30T17:53:14;101253.22;;;-1.30;78.95
78117;BME280;69042;59.120;37.904;2024-01-30T17:55:41;101253.13;;;-1.33;78.85
78117;BME280;69042;59.120;37.904;2024-01-30T17:58:07;101253.06;;;-1.36;79.11